Time;durP1;ratioP1;P1;durP2;ratioP2;P2;SDS_P1;SDS_P2;PMS_P1;PMS_P2;Temp;Humidity;BMP_temperature;BMP_pressure;BME280_temperature;BME280_humidity;BME280_pressure;Samples;Min_cycle;Max_cycle;Signal;HPM_P1;HPM_P2
2022/09/10 00:02:04;;;;;;;23.88;15.43;;;;;;;;;;5127649;27;20058;-68
2022/09/10 00:04:30;;;;;;;24.48;16.05;;;;;;;;;;5150603;27;20047;-68
2022/09/10 00:06:56;;;;;;;21.05;14.20;;;;;;;;;;5149885;27;20121;-68
2022/09/10 00:09:22;;;;;;;24.70;16.08;;;;;;;;;;5148831;27;20087;-69
2022/09/10 00:11:48;;;;;;;25.70;15.75;;;;;;;;;;5151575;27;20054;-68
2022/09/10 00:14:16;;;;;;;27.75;16.30;;;;;;;;;;5148146;27;20455;-68
2022/09/10 00:16:42;;;;;;;24.13;15.95;;;;;;;;;;5148332;27;20039;-68
2022/09/10 00:19:09;;;;;;;26.20;17.48;;;;;;;;;;5147281;27;20084;-68
2022/09/10 00:21:38;;;;;;;26.38;17.63;;;;;;;;;;5149638;27;20122;-66
2022/09/10 00:24:04;;;;;;;27.35;17.58;;;;;;;;;;5150562;27;20125;-68
2022/09/10 00:26:38;;;;;;;32.33;18.10;;;;;;;;;;5133084;27;20110;-68
2022/09/10 00:29:05;;;;;;;29.55;18.25;;;;;;;;;;5143102;27;20526;-68
2022/09/10 00:31:32;;;;;;;24.60;18.23;;;;;;;;;;5128708;27;20043;-67
2022/09/10 00:33:59;;;;;;;27.83;18.85;;;;;;;;;;5150259;27;20081;-68
2022/09/10 00:36:34;;;;;;;29.48;18.75;;;;;;;;;;5131397;27;20447;-68
2022/09/10 00:39:02;;;;;;;27.92;19.05;;;;;;;;;;5147276;27;20039;-67
2022/09/10 00:41:28;;;;;;;29.25;19.02;;;;;;;;;;5140144;27;20153;-68
2022/09/10 00:43:56;;;;;;;31.35;19.15;;;;;;;;;;5149818;27;20046;-67
2022/09/10 00:46:28;;;;;;;30.55;18.50;;;;;;;;;;5147976;27;20046;-66
2022/09/10 00:48:56;;;;;;;25.77;18.50;;;;;;;;;;5149269;27;20126;-66
2022/09/10 00:51:23;;;;;;;25.98;18.08;;;;;;;;;;5147923;27;20498;-66
2022/09/10 00:53:49;;;;;;;29.42;18.30;;;;;;;;;;5149694;27;20114;-66
2022/09/10 00:56:16;;;;;;;25.20;18.20;;;;;;;;;;5147791;27;20397;-66
2022/09/10 00:58:42;;;;;;;;;;;;;;;;;;5148436;27;20073;-66
2022/09/10 01:01:08;;;;;;;25.90;17.98;;;;;;;;;;5147343;27;19976;-66
2022/09/10 01:03:34;;;;;;;31.73;18.67;;;;;;;;;;5149583;27;20118;-66
2022/09/10 01:06:02;;;;;;;;;;;;;;;;;;5148781;27;20062;-66
2022/09/10 01:08:28;;;;;;;24.02;17.70;;;;;;;;;;5149205;27;19966;-67
2022/09/10 01:11:03;;;;;;;29.20;18.50;;;;;;;;;;5149608;27;20042;-68
2022/09/10 01:13:48;;;;;;;27.15;18.45;;;;;;;;;;5149074;27;20119;-67
2022/09/10 01:16:23;;;;;;;30.75;18.63;;;;;;;;;;5131907;27;20508;-68
2022/09/10 01:18:58;;;;;;;25.98;17.80;;;;;;;;;;5135272;27;20038;-68
2022/09/10 01:21:35;;;;;;;25.63;18.52;;;;;;;;;;5149112;27;20057;-68
2022/09/10 01:24:03;;;;;;;28.30;19.10;;;;;;;;;;5147972;27;20064;-68
2022/09/10 01:26:48;;;;;;;31.05;19.83;;;;;;;;;;5147357;27;20141;-68
2022/09/10 01:29:14;;;;;;;32.30;20.55;;;;;;;;;;5137315;27;20067;-68
2022/09/10 01:32:16;;;;;;;28.13;20.38;;;;;;;;;;5147774;27;20103;-68
2022/09/10 01:34:48;;;;;;;32.20;20.90;;;;;;;;;;5043671;28;20056;-67
2022/09/10 01:37:24;;;;;;;31.40;21.05;;;;;;;;;;5131265;27;20091;-67
2022/09/10 01:39:51;;;;;;;28.83;19.90;;;;;;;;;;5148965;27;20332;-66
2022/09/10 01:42:17;;;;;;;29.38;20.50;;;;;;;;;;5145445;27;20042;-67
2022/09/10 01:44:51;;;;;;;30.30;19.83;;;;;;;;;;5147184;27;20418;-67
2022/09/10 01:47:27;;;;;;;32.47;19.20;;;;;;;;;;5128604;27;20134;-67
2022/09/10 01:50:09;;;;;;;29.52;19.98;;;;;;;;;;5129307;27;20039;-66
2022/09/10 01:52:57;;;;;;;29.05;19.48;;;;;;;;;;5147268;27;20042;-66
2022/09/10 01:55:46;;;;;;;29.55;21.17;;;;;;;;;;5085410;28;20058;-67
2022/09/10 01:58:34;;;;;;;34.28;23.13;;;;;;;;;;5092140;27;20122;-68
2022/09/10 02:01:03;;;;;;;36.88;24.17;;;;;;;;;;5136176;27;20046;-68
2022/09/10 02:03:29;;;;;;;37.00;24.05;;;;;;;;;;5132848;27;20122;-68
2022/09/10 02:05:56;;;;;;;36.72;25.48;;;;;;;;;;5130636;27;20126;-68
2022/09/10 02:08:32;;;;;;;34.08;23.73;;;;;;;;;;5147121;27;20422;-69
2022/09/10 02:11:01;;;;;;;36.60;25.15;;;;;;;;;;5147112;27;20397;-68
2022/09/10 02:13:28;;;;;;;35.97;24.58;;;;;;;;;;5149114;27;20129;-68
2022/09/10 02:15:55;;;;;;;43.00;27.00;;;;;;;;;;5147509;27;20143;-66
2022/09/10 02:18:22;;;;;;;45.63;27.85;;;;;;;;;;5149159;27;20038;-67
2022/09/10 02:20:50;;;;;;;45.47;29.02;;;;;;;;;;5144781;27;20454;-68
2022/09/10 02:23:17;;;;;;;41.67;28.85;;;;;;;;;;5148506;27;20042;-67
2022/09/10 02:25:43;;;;;;;44.30;29.10;;;;;;;;;;5147053;27;20053;-67
2022/09/10 02:28:10;;;;;;;47.85;32.13;;;;;;;;;;5149410;27;20072;-68
2022/09/10 02:30:39;;;;;;;51.90;33.20;;;;;;;;;;5142611;27;20374;-69
2022/09/10 02:33:05;;;;;;;49.60;31.50;;;;;;;;;;5145640;27;20038;-69
2022/09/10 02:35:31;;;;;;;;;;;;;;;;;;5142896;27;20095;-69
2022/09/10 02:37:58;;;;;;;46.60;30.30;;;;;;;;;;5147421;27;20093;-69
2022/09/10 02:40:24;;;;;;;49.70;33.13;;;;;;;;;;5146709;27;20034;-69
2022/09/10 02:42:50;;;;;;;;;;;;;;;;;;5129940;27;20046;-69
2022/09/10 02:45:16;;;;;;;47.15;32.83;;;;;;;;;;5145453;27;20371;-69
2022/09/10 02:47:43;;;;;;;50.28;32.92;;;;;;;;;;5148760;27;20502;-68
2022/09/10 02:50:10;;;;;;;52.70;34.40;;;;;;;;;;5146538;27;20067;-69
2022/09/10 02:52:36;;;;;;;48.22;32.70;;;;;;;;;;5145150;27;20106;-68
2022/09/10 02:55:02;;;;;;;49.08;33.03;;;;;;;;;;5145735;27;20051;-68
2022/09/10 02:57:30;;;;;;;49.72;32.90;;;;;;;;;;5148668;27;20077;-68
2022/09/10 02:59:56;;;;;;;49.75;33.88;;;;;;;;;;5145658;27;20381;-68
2022/09/10 03:02:22;;;;;;;50.92;34.53;;;;;;;;;;5150471;27;20121;-68
2022/09/10 03:04:48;;;;;;;;;;;;;;;;;;5149974;27;20039;-68
2022/09/10 03:07:16;;;;;;;47.78;32.72;;;;;;;;;;5152923;27;20021;-67
2022/09/10 03:09:42;;;;;;;51.38;34.00;;;;;;;;;;5149927;27;20138;-67
2022/09/10 03:12:08;;;;;;;47.85;32.65;;;;;;;;;;5132764;27;20411;-67
2022/09/10 03:14:34;;;;;;;49.45;31.05;;;;;;;;;;5151451;27;20443;-68
2022/09/10 03:17:01;;;;;;;47.78;32.28;;;;;;;;;;5150333;27;20461;-68
2022/09/10 03:19:27;;;;;;;53.83;33.85;;;;;;;;;;5152298;27;20442;-68
2022/09/10 03:21:54;;;;;;;47.25;32.40;;;;;;;;;;5150052;27;20075;-68
2022/09/10 03:24:21;;;;;;;47.95;31.80;;;;;;;;;;5149139;27;20043;-67
2022/09/10 03:26:47;;;;;;;48.30;33.58;;;;;;;;;;5130574;27;20392;-68
2022/09/10 03:29:14;;;;;;;;;;;;;;;;;;5150165;27;20089;-69
2022/09/10 03:31:41;;;;;;;50.15;34.65;;;;;;;;;;5150517;27;20390;-68
2022/09/10 03:34:07;;;;;;;52.97;35.50;;;;;;;;;;5151284;27;20050;-67
2022/09/10 03:36:33;;;;;;;;;;;;;;;;;;5148526;27;20050;-68
2022/09/10 03:38:59;;;;;;;56.50;35.75;;;;;;;;;;5152319;27;19955;-69
2022/09/10 03:41:27;;;;;;;52.65;34.30;;;;;;;;;;5149959;27;20047;-68
2022/09/10 03:43:53;;;;;;;52.00;34.38;;;;;;;;;;5149274;27;20815;-68
2022/09/10 03:46:20;;;;;;;56.70;36.25;;;;;;;;;;5148354;27;20187;-67
2022/09/10 03:48:46;;;;;;;53.85;35.30;;;;;;;;;;5148174;27;20042;-68
2022/09/10 03:51:15;;;;;;;55.80;34.00;;;;;;;;;;5141620;27;20050;-68
2022/09/10 03:53:42;;;;;;;55.70;34.25;;;;;;;;;;5151503;27;20118;-68
2022/09/10 03:56:08;;;;;;;51.75;35.08;;;;;;;;;;5149652;27;20051;-68
2022/09/10 03:58:34;;;;;;;52.70;34.85;;;;;;;;;;5149319;27;20043;-68
2022/09/10 04:01:01;;;;;;;59.30;35.45;;;;;;;;;;5147267;27;20047;-68
2022/09/10 04:03:27;;;;;;;55.90;36.38;;;;;;;;;;5151076;27;20091;-68
2022/09/10 04:05:53;;;;;;;51.72;34.78;;;;;;;;;;5150438;27;20070;-68
2022/09/10 04:08:19;;;;;;;53.47;35.60;;;;;;;;;;5148722;27;20050;-68
2022/09/10 04:10:47;;;;;;;53.25;35.22;;;;;;;;;;5147073;27;20110;-68
2022/09/10 04:13:13;;;;;;;56.35;36.78;;;;;;;;;;5150936;27;20050;-68
2022/09/10 04:15:39;;;;;;;51.38;32.92;;;;;;;;;;5150323;27;20041;-68
2022/09/10 04:18:07;;;;;;;59.53;36.05;;;;;;;;;;5149613;27;20444;-67
2022/09/10 04:20:33;;;;;;;54.67;35.45;;;;;;;;;;5148426;27;20512;-68
2022/09/10 04:22:59;;;;;;;53.03;35.28;;;;;;;;;;5145088;27;20056;-68
2022/09/10 04:25:25;;;;;;;58.10;36.13;;;;;;;;;;5147002;27;20411;-67
2022/09/10 04:27:51;;;;;;;;;;;;;;;;;;5148518;27;20055;-67
2022/09/10 04:30:18;;;;;;;56.60;36.03;;;;;;;;;;5146882;27;19929;-66
2022/09/10 04:32:44;;;;;;;66.15;40.08;;;;;;;;;;5148745;27;20140;-67
2022/09/10 04:35:14;;;;;;;66.35;39.80;;;;;;;;;;5132572;27;20047;-67
2022/09/10 04:37:40;;;;;;;68.15;39.03;;;;;;;;;;5148045;27;20055;-68
2022/09/10 04:40:08;;;;;;;63.25;37.58;;;;;;;;;;5148987;27;20054;-67
2022/09/10 04:42:34;;;;;;;61.40;38.47;;;;;;;;;;5148779;27;20096;-67
2022/09/10 04:45:00;;;;;;;;;;;;;;;;;;5148825;27;20110;-68
2022/09/10 04:47:26;;;;;;;65.55;39.63;;;;;;;;;;5149875;27;20002;-67
2022/09/10 04:49:52;;;;;;;61.67;38.10;;;;;;;;;;5148279;27;20055;-67
2022/09/10 04:52:20;;;;;;;;;;;;;;;;;;5149562;27;20056;-68
2022/09/10 04:54:46;;;;;;;57.78;37.03;;;;;;;;;;5149387;27;20342;-68
2022/09/10 04:57:13;;;;;;;62.35;37.63;;;;;;;;;;5149214;27;20039;-67
2022/09/10 04:59:40;;;;;;;60.97;36.75;;;;;;;;;;5148666;27;20078;-67
2022/09/10 05:02:08;;;;;;;;;;;;;;;;;;5143789;27;20054;-68
2022/09/10 05:04:34;;;;;;;62.45;38.03;;;;;;;;;;5150746;27;19919;-67
2022/09/10 05:07:00;;;;;;;;;;;;;;;;;;5148587;27;20042;-67
2022/09/10 05:09:30;;;;;;;59.75;37.95;;;;;;;;;;5148968;27;19987;-67
2022/09/10 05:11:56;;;;;;;54.55;36.15;;;;;;;;;;5146108;27;20095;-67
2022/09/10 05:14:24;;;;;;;54.17;36.03;;;;;;;;;;5146567;27;20428;-67
2022/09/10 05:16:50;;;;;;;55.65;35.13;;;;;;;;;;5127041;27;20127;-67
2022/09/10 05:19:19;;;;;;;56.45;35.63;;;;;;;;;;5149665;27;20039;-67
2022/09/10 05:21:46;;;;;;;56.63;35.35;;;;;;;;;;5145163;27;20669;-66
2022/09/10 05:24:12;;;;;;;52.65;36.00;;;;;;;;;;5150291;27;20118;-66
2022/09/10 05:26:38;;;;;;;51.20;34.75;;;;;;;;;;5146447;27;20066;-66
2022/09/10 05:29:05;;;;;;;;;;;;;;;;;;5148547;27;20058;-67
2022/09/10 05:31:32;;;;;;;48.35;33.30;;;;;;;;;;5147788;27;20334;-67
2022/09/10 05:34:00;;;;;;;53.80;34.70;;;;;;;;;;5146042;27;20061;-66
2022/09/10 05:36:26;;;;;;;56.00;34.05;;;;;;;;;;5149066;27;20050;-66
2022/09/10 05:38:53;;;;;;;49.65;33.58;;;;;;;;;;5148308;27;20043;-67
2022/09/10 05:41:20;;;;;;;52.30;32.30;;;;;;;;;;5148640;27;20509;-66
2022/09/10 05:43:47;;;;;;;47.22;32.30;;;;;;;;;;5145842;27;20045;-66
2022/09/10 05:46:13;;;;;;;49.22;32.90;;;;;;;;;;5146546;27;20136;-67
2022/09/10 05:48:39;;;;;;;51.90;33.00;;;;;;;;;;5133055;27;20055;-66
2022/09/10 05:51:06;;;;;;;52.25;33.70;;;;;;;;;;5144939;27;20095;-66
2022/09/10 05:53:32;;;;;;;;;;;;;;;;;;5149548;27;20083;-66
2022/09/10 05:55:58;;;;;;;47.63;32.20;;;;;;;;;;5149312;27;19967;-66
2022/09/10 05:58:26;;;;;;;;;;;;;;;;;;5135476;27;20054;-66
2022/09/10 06:00:53;;;;;;;53.38;33.55;;;;;;;;;;5142305;27;19970;-66
2022/09/10 06:03:20;;;;;;;50.65;31.55;;;;;;;;;;5137534;27;20388;-66
2022/09/10 06:05:50;;;;;;;49.20;30.05;;;;;;;;;;5139992;27;20070;-66
2022/09/10 06:08:20;;;;;;;47.50;30.75;;;;;;;;;;5142507;27;20058;-66
2022/09/10 06:10:56;;;;;;;53.35;32.53;;;;;;;;;;5144910;27;20084;-66
2022/09/10 06:13:22;;;;;;;48.65;31.73;;;;;;;;;;5142438;27;20039;-66
2022/09/10 06:15:48;;;;;;;;;;;;;;;;;;5137364;27;20061;-67
2022/09/10 06:18:14;;;;;;;48.35;30.83;;;;;;;;;;5139743;27;19935;-67
2022/09/10 06:20:40;;;;;;;49.40;31.35;;;;;;;;;;5146209;27;20053;-67
2022/09/10 06:23:06;;;;;;;44.17;29.45;;;;;;;;;;5147412;27;20350;-67
2022/09/10 06:25:36;;;;;;;48.50;31.65;;;;;;;;;;5140955;27;20070;-67
2022/09/10 06:28:02;;;;;;;51.63;30.60;;;;;;;;;;5141155;27;20055;-67
2022/09/10 06:30:28;;;;;;;46.97;31.27;;;;;;;;;;5146030;27;20144;-67
2022/09/10 06:32:54;;;;;;;43.75;29.00;;;;;;;;;;5136461;27;20039;-67
2022/09/10 06:35:20;;;;;;;46.30;29.90;;;;;;;;;;5136654;27;20039;-67
2022/09/10 06:37:46;;;;;;;45.47;29.58;;;;;;;;;;5141302;27;20139;-67
2022/09/10 06:40:12;;;;;;;48.00;29.48;;;;;;;;;;5137843;27;20035;-67
2022/09/10 06:42:39;;;;;;;51.70;30.88;;;;;;;;;;5145244;27;20069;-67
2022/09/10 06:45:09;;;;;;;44.72;30.00;;;;;;;;;;5140673;27;20083;-67
2022/09/10 06:47:36;;;;;;;44.45;28.80;;;;;;;;;;5149127;27;20068;-67
2022/09/10 06:50:03;;;;;;;49.47;30.33;;;;;;;;;;5143419;27;20039;-68
2022/09/10 06:52:29;;;;;;;42.15;28.60;;;;;;;;;;5145831;27;20356;-68
2022/09/10 06:54:56;;;;;;;45.08;29.35;;;;;;;;;;5127787;27;20102;-69
2022/09/10 06:57:25;;;;;;;45.10;29.20;;;;;;;;;;5146160;27;20043;-68
2022/09/10 06:59:51;;;;;;;44.13;27.58;;;;;;;;;;5124162;27;20146;-68
2022/09/10 07:02:17;;;;;;;47.50;30.55;;;;;;;;;;5145319;27;20121;-68
2022/09/10 07:04:45;;;;;;;45.30;28.77;;;;;;;;;;5152294;27;20057;-69
2022/09/10 07:07:11;;;;;;;44.47;28.48;;;;;;;;;;5133024;27;20056;-68
2022/09/10 07:09:37;;;;;;;47.45;29.27;;;;;;;;;;5150307;27;20114;-68
2022/09/10 07:12:03;;;;;;;48.40;28.77;;;;;;;;;;5151581;27;20050;-68
2022/09/10 07:14:29;;;;;;;52.95;29.77;;;;;;;;;;5151767;27;20387;-68
2022/09/10 07:16:56;;;;;;;46.42;29.13;;;;;;;;;;5152085;27;20462;-68
2022/09/10 07:19:22;;;;;;;46.72;29.92;;;;;;;;;;5148801;27;20110;-69
2022/09/10 07:21:51;;;;;;;44.58;27.80;;;;;;;;;;5132493;27;20190;-68
2022/09/10 07:24:18;;;;;;;46.70;29.15;;;;;;;;;;5150209;27;20046;-69
2022/09/10 07:26:47;;;;;;;45.00;28.02;;;;;;;;;;5151489;27;20189;-68
2022/09/10 07:29:14;;;;;;;42.95;28.58;;;;;;;;;;5152289;27;20062;-68
2022/09/10 07:31:40;;;;;;;47.72;28.88;;;;;;;;;;5151156;27;20043;-68
2022/09/10 07:34:07;;;;;;;43.25;27.90;;;;;;;;;;5146413;27;20058;-68
2022/09/10 07:36:33;;;;;;;48.08;29.15;;;;;;;;;;5129176;27;20111;-68
2022/09/10 07:39:00;;;;;;;;;;;;;;;;;;5148556;27;20070;-68
2022/09/10 07:41:29;;;;;;;49.38;29.85;;;;;;;;;;5149100;27;19915;-69
2022/09/10 07:43:56;;;;;;;43.15;27.55;;;;;;;;;;5151736;27;20043;-68
2022/09/10 07:46:24;;;;;;;;;;;;;;;;;;5149302;27;20042;-68
2022/09/10 07:48:57;;;;;;;44.60;27.02;;;;;;;;;;5147488;27;20427;-69
2022/09/10 07:51:24;;;;;;;46.60;27.48;;;;;;;;;;5145560;27;20047;-71
2022/09/10 07:53:54;;;;;;;41.80;25.92;;;;;;;;;;5144982;27;20042;-69
2022/09/10 07:56:22;;;;;;;40.15;26.80;;;;;;;;;;5149023;27;20358;-69
2022/09/10 07:58:48;;;;;;;41.65;26.40;;;;;;;;;;5147282;27;20098;-68
2022/09/10 08:01:14;;;;;;;44.30;27.55;;;;;;;;;;5138979;27;20034;-70
2022/09/10 08:03:40;;;;;;;;;;;;;;;;;;5141027;27;20156;-68
2022/09/10 08:06:07;;;;;;;43.13;26.88;;;;;;;;;;5137743;27;20026;-71
2022/09/10 08:08:34;;;;;;;45.42;27.42;;;;;;;;;;5119293;27;20039;-68
2022/09/10 08:11:06;;;;;;;45.20;28.83;;;;;;;;;;5137622;27;20134;-68
2022/09/10 08:13:34;;;;;;;45.67;27.75;;;;;;;;;;5139292;27;20125;-68
2022/09/10 08:16:00;;;;;;;45.15;26.98;;;;;;;;;;5134948;27;20439;-68
2022/09/10 08:18:28;;;;;;;50.78;28.20;;;;;;;;;;5136900;27;20327;-68
2022/09/10 08:20:54;;;;;;;45.83;28.83;;;;;;;;;;5118368;27;20051;-70
2022/09/10 08:23:21;;;;;;;47.60;28.88;;;;;;;;;;5138872;27;20073;-68
2022/09/10 08:25:50;;;;;;;45.45;26.65;;;;;;;;;;5135381;27;20066;-69
2022/09/10 08:28:18;;;;;;;51.15;30.17;;;;;;;;;;5137066;27;20104;-68
2022/09/10 08:30:59;;;;;;;43.92;28.25;;;;;;;;;;5139224;27;20104;-69
2022/09/10 08:33:26;;;;;;;48.97;30.00;;;;;;;;;;5139349;27;20379;-68
2022/09/10 08:35:56;;;;;;;46.92;28.40;;;;;;;;;;5137940;27;20131;-68
2022/09/10 08:38:26;;;;;;;45.80;28.52;;;;;;;;;;5135509;27;20380;-69
2022/09/10 08:40:53;;;;;;;43.88;28.13;;;;;;;;;;5137059;27;20166;-69
2022/09/10 08:43:49;;;;;;;48.28;28.83;;;;;;;;;;5138137;27;20117;-68
2022/09/10 08:46:24;;;;;;;44.83;28.25;;;;;;;;;;5118264;27;20043;-69
2022/09/10 08:48:51;;;;;;;44.33;28.65;;;;;;;;;;5141077;27;20096;-68
2022/09/10 08:51:26;;;;;;;48.97;28.60;;;;;;;;;;5146050;27;20126;-69
2022/09/10 08:53:58;;;;;;;44.90;27.25;;;;;;;;;;5146408;27;20046;-68
2022/09/10 08:56:24;;;;;;;44.42;28.23;;;;;;;;;;5137649;27;20125;-68
2022/09/10 08:58:50;;;;;;;45.75;28.10;;;;;;;;;;5122863;27;20053;-68
2022/09/10 09:01:29;;;;;;;44.40;27.10;;;;;;;;;;5142633;27;20050;-69
2022/09/10 09:03:56;;;;;;;43.80;27.00;;;;;;;;;;5141629;27;20103;-68
2022/09/10 09:06:26;;;;;;;42.20;24.80;;;;;;;;;;5146298;27;20335;-68
2022/09/10 09:08:53;;;;;;;44.67;26.85;;;;;;;;;;5143663;27;20446;-68
2022/09/10 09:11:28;;;;;;;43.83;26.13;;;;;;;;;;5142771;27;20479;-69
2022/09/10 09:14:03;;;;;;;47.60;26.80;;;;;;;;;;5144666;27;20038;-68
2022/09/10 09:16:48;;;;;;;45.38;26.20;;;;;;;;;;5147013;27;20375;-68
2022/09/10 09:19:27;;;;;;;41.13;25.25;;;;;;;;;;5136423;27;20463;-68
2022/09/10 09:21:54;;;;;;;40.83;26.05;;;;;;;;;;5124557;27;20053;-68
2022/09/10 09:24:24;;;;;;;44.63;27.35;;;;;;;;;;5142498;27;20043;-68
2022/09/10 09:26:53;;;;;;;47.20;27.35;;;;;;;;;;5142152;27;21198;-68
2022/09/10 09:29:26;;;;;;;45.80;27.27;;;;;;;;;;5144092;27;20046;-68
2022/09/10 09:31:56;;;;;;;46.17;27.02;;;;;;;;;;5119553;27;20077;-68
2022/09/10 09:34:28;;;;;;;46.03;26.50;;;;;;;;;;5145415;27;20489;-67
2022/09/10 09:36:56;;;;;;;46.28;26.17;;;;;;;;;;5140722;27;20520;-68
2022/09/10 09:39:34;;;;;;;38.35;25.02;;;;;;;;;;5122657;27;20046;-69
2022/09/10 09:42:19;;;;;;;37.03;25.20;;;;;;;;;;5144445;27;20058;-68
2022/09/10 09:44:51;;;;;;;40.33;25.55;;;;;;;;;;5142851;27;20043;-68
2022/09/10 09:47:17;;;;;;;41.45;27.58;;;;;;;;;;5142161;27;20051;-68
2022/09/10 09:49:44;;;;;;;40.85;25.02;;;;;;;;;;5138817;27;20043;-68
2022/09/10 09:52:17;;;;;;;42.75;26.35;;;;;;;;;;5136358;27;20118;-68
2022/09/10 09:54:46;;;;;;;42.42;26.33;;;;;;;;;;5133424;27;20131;-68
2022/09/10 09:57:19;;;;;;;39.50;24.85;;;;;;;;;;5137097;27;20051;-68
2022/09/10 09:59:45;;;;;;;38.05;24.60;;;;;;;;;;5128520;27;20039;-69
2022/09/10 10:02:13;;;;;;;40.10;24.40;;;;;;;;;;5118035;27;20134;-69
2022/09/10 10:04:41;;;;;;;43.17;23.08;;;;;;;;;;5133591;27;20046;-69
2022/09/10 10:07:07;;;;;;;41.40;24.35;;;;;;;;;;5122058;27;20042;-69
2022/09/10 10:09:35;;;;;;;40.05;23.52;;;;;;;;;;5148362;27;20066;-69
2022/09/10 10:12:06;;;;;;;37.50;23.05;;;;;;;;;;5143758;27;20053;-69
2022/09/10 10:14:34;;;;;;;39.88;23.67;;;;;;;;;;5119408;27;20046;-69
2022/09/10 10:17:20;;;;;;;36.35;22.73;;;;;;;;;;5151760;27;20047;-69
2022/09/10 10:19:55;;;;;;;39.53;23.90;;;;;;;;;;5147323;27;20109;-69
2022/09/10 10:22:24;;;;;;;34.30;20.52;;;;;;;;;;5133494;27;20130;-69
2022/09/10 10:24:52;;;;;;;34.63;21.80;;;;;;;;;;5119339;27;20054;-69
2022/09/10 10:27:29;;;;;;;36.40;22.88;;;;;;;;;;5145765;27;20075;-68
2022/09/10 10:30:21;;;;;;;35.00;21.33;;;;;;;;;;5140866;27;20054;-69
2022/09/10 10:32:52;;;;;;;37.25;22.40;;;;;;;;;;5126565;27;20459;-69
2022/09/10 10:35:43;;;;;;;33.58;21.67;;;;;;;;;;5141429;27;20099;-69
2022/09/10 10:38:24;;;;;;;36.83;23.15;;;;;;;;;;5142057;27;20114;-68
2022/09/10 10:41:23;;;;;;;37.25;21.88;;;;;;;;;;5124683;27;20125;-69
2022/09/10 10:43:56;;;;;;;34.15;21.00;;;;;;;;;;5140013;27;20123;-69
2022/09/10 10:46:40;;;;;;;30.92;20.23;;;;;;;;;;5139465;27;20408;-71
2022/09/10 10:49:28;;;;;;;36.38;21.15;;;;;;;;;;5141122;27;20378;-69
2022/09/10 10:52:13;;;;;;;35.10;21.15;;;;;;;;;;5139663;27;20054;-69
2022/09/10 10:55:04;;;;;;;33.40;20.00;;;;;;;;;;5138722;27;20194;-68
2022/09/10 10:57:49;;;;;;;34.35;20.45;;;;;;;;;;5144207;27;20126;-69
2022/09/10 11:00:17;;;;;;;32.85;19.98;;;;;;;;;;5147226;27;20043;-70
2022/09/10 11:03:05;;;;;;;32.13;20.67;;;;;;;;;;5148315;27;20119;-69
2022/09/10 11:05:31;;;;;;;;;;;;;;;;;;5131862;27;20094;-69
2022/09/10 11:08:03;;;;;;;32.08;20.02;;;;;;;;;;5144381;27;19919;-69
2022/09/10 11:10:36;;;;;;;31.90;19.92;;;;;;;;;;5143643;27;20038;-69
2022/09/10 11:13:10;;;;;;;31.50;19.85;;;;;;;;;;5149323;27;20043;-69
2022/09/10 11:15:42;;;;;;;33.63;20.33;;;;;;;;;;5122806;27;20039;-69
2022/09/10 11:18:15;;;;;;;34.58;21.85;;;;;;;;;;5139669;27;20513;-69
2022/09/10 11:20:43;;;;;;;36.95;22.20;;;;;;;;;;5140645;27;20039;-69
2022/09/10 11:23:09;;;;;;;36.10;20.70;;;;;;;;;;5143213;27;20091;-69
2022/09/10 11:25:43;;;;;;;34.25;21.27;;;;;;;;;;5141604;27;20083;-69
2022/09/10 11:28:15;;;;;;;32.28;20.75;;;;;;;;;;5140395;27;20365;-69
2022/09/10 11:30:44;;;;;;;33.53;20.98;;;;;;;;;;5117812;27;20148;-69
2022/09/10 11:33:15;;;;;;;33.38;20.05;;;;;;;;;;5119384;27;20050;-70
2022/09/10 11:35:47;;;;;;;32.35;20.38;;;;;;;;;;5138755;27;20039;-69
2022/09/10 11:38:37;;;;;;;31.23;18.85;;;;;;;;;;5140730;27;20042;-69
2022/09/10 11:41:03;;;;;;;32.13;19.02;;;;;;;;;;5138026;27;20111;-70
2022/09/10 11:43:36;;;;;;;28.83;18.20;;;;;;;;;;5141118;27;20083;-69
2022/09/10 11:46:09;;;;;;;30.77;18.10;;;;;;;;;;5145636;27;20064;-70
2022/09/10 11:48:47;;;;;;;27.08;18.30;;;;;;;;;;5143070;27;20505;-70
2022/09/10 11:51:21;;;;;;;30.13;17.77;;;;;;;;;;5147898;27;20046;-69
2022/09/10 11:53:47;;;;;;;31.20;18.20;;;;;;;;;;5147393;27;20046;-70
2022/09/10 11:56:22;;;;;;;29.75;17.60;;;;;;;;;;5145547;27;20183;-69
2022/09/10 11:59:03;;;;;;;26.77;17.95;;;;;;;;;;5147068;27;20058;-69
2022/09/10 12:01:36;;;;;;;27.58;17.35;;;;;;;;;;5148933;27;20043;-70
2022/09/10 12:04:02;;;;;;;26.50;18.23;;;;;;;;;;5141181;27;20117;-69
2022/09/10 12:06:46;;;;;;;29.52;16.85;;;;;;;;;;5141465;27;20465;-70
2022/09/10 12:09:17;;;;;;;25.80;15.35;;;;;;;;;;5146935;27;22316;-66
2022/09/10 12:11:43;;;;;;;26.45;15.25;;;;;;;;;;5137481;27;20070;-67
2022/09/10 12:14:20;;;;;;;27.42;16.15;;;;;;;;;;5143254;27;20434;-67
2022/09/10 12:16:46;;;;;;;23.48;15.00;;;;;;;;;;5142261;27;20042;-71
2022/09/10 12:19:25;;;;;;;22.83;13.80;;;;;;;;;;5144159;27;20438;-69
2022/09/10 12:21:53;;;;;;;21.38;13.05;;;;;;;;;;5140380;27;20072;-70
2022/09/10 12:24:24;;;;;;;22.00;13.38;;;;;;;;;;5142138;27;20404;-70
2022/09/10 12:26:51;;;;;;;21.27;11.90;;;;;;;;;;5130912;27;20046;-70
2022/09/10 12:29:28;;;;;;;20.40;12.15;;;;;;;;;;5137976;27;20126;-69
2022/09/10 12:32:13;;;;;;;21.70;11.60;;;;;;;;;;5117782;27;20058;-67
2022/09/10 12:34:40;;;;;;;19.00;10.05;;;;;;;;;;5148241;27;20069;-69
2022/09/10 12:37:17;;;;;;;16.30;9.52;;;;;;;;;;5150084;27;20042;-67
2022/09/10 12:39:44;;;;;;;14.55;9.02;;;;;;;;;;5142135;27;20047;-69
2022/09/10 12:42:09;;;;;;;;;;;;;;;;;;5149672;27;20116;-68
2022/09/10 12:44:36;;;;;;;15.38;9.85;;;;;;;;;;5143154;27;20001;-69
2022/09/10 12:47:17;;;;;;;18.10;10.50;;;;;;;;;;5149588;27;20085;-68
2022/09/10 12:49:49;;;;;;;17.02;9.25;;;;;;;;;;5147344;27;20042;-67
2022/09/10 12:52:39;;;;;;;18.90;9.95;;;;;;;;;;5131127;27;20363;-67
2022/09/10 12:55:27;;;;;;;17.25;9.73;;;;;;;;;;5134005;27;20371;-67
2022/09/10 12:58:00;;;;;;;19.35;10.52;;;;;;;;;;5141389;27;20556;-73
2022/09/10 13:00:30;;;;;;;21.27;10.95;;;;;;;;;;5115282;27;20068;-69
2022/09/10 13:03:16;;;;;;;17.63;10.30;;;;;;;;;;5136256;27;20053;-67
2022/09/10 13:05:46;;;;;;;16.02;10.07;;;;;;;;;;5147270;27;20074;-67
2022/09/10 13:08:15;;;;;;;16.30;9.63;;;;;;;;;;5148057;27;20098;-67
2022/09/10 13:10:48;;;;;;;15.68;9.50;;;;;;;;;;5148412;27;20050;-67
2022/09/10 13:13:38;;;;;;;19.63;12.07;;;;;;;;;;5127973;27;20042;-69
2022/09/10 13:16:04;;;;;;;22.42;13.02;;;;;;;;;;5131587;27;20051;-70
2022/09/10 13:18:32;;;;;;;20.67;11.57;;;;;;;;;;5138117;27;20506;-68
2022/09/10 13:20:59;;;;;;;18.83;11.15;;;;;;;;;;5148710;27;20338;-70
2022/09/10 13:23:45;;;;;;;19.98;12.30;;;;;;;;;;5142841;27;20089;-69
2022/09/10 13:26:37;;;;;;;20.50;12.27;;;;;;;;;;5146218;27;20374;-70
2022/09/10 13:29:25;;;;;;;19.00;11.90;;;;;;;;;;5127911;27;20430;-66
2022/09/10 13:31:58;;;;;;;17.70;10.73;;;;;;;;;;5149133;27;20081;-66
2022/09/10 13:34:30;;;;;;;18.50;11.05;;;;;;;;;;5146184;27;20050;-65
2022/09/10 13:37:09;;;;;;;17.50;11.20;;;;;;;;;;5115918;27;20035;-64
2022/09/10 13:39:47;;;;;;;17.58;11.05;;;;;;;;;;5122828;27;20366;-65
2022/09/10 13:42:16;;;;;;;19.02;11.48;;;;;;;;;;5149213;27;20122;-65
2022/09/10 13:45:01;;;;;;;22.52;12.07;;;;;;;;;;5149359;27;20098;-64
2022/09/10 13:47:41;;;;;;;18.60;11.82;;;;;;;;;;5130269;27;20050;-65
2022/09/10 13:50:13;;;;;;;18.95;11.52;;;;;;;;;;5144397;27;20141;-66
2022/09/10 13:52:43;;;;;;;18.92;10.88;;;;;;;;;;5144254;27;20042;-65
2022/09/10 13:55:14;;;;;;;18.33;10.73;;;;;;;;;;5137278;27;20125;-65
2022/09/10 13:57:43;;;;;;;15.43;9.63;;;;;;;;;;5146627;27;20046;-64
2022/09/10 14:00:21;;;;;;;17.38;10.55;;;;;;;;;;5143218;27;20054;-65
2022/09/10 14:02:49;;;;;;;18.05;9.80;;;;;;;;;;5140247;27;20054;-64
2022/09/10 14:05:28;;;;;;;17.83;8.93;;;;;;;;;;5140341;27;20415;-66
2022/09/10 14:07:55;;;;;;;17.65;8.82;;;;;;;;;;5138717;27;20046;-66
2022/09/10 14:10:21;;;;;;;16.00;9.25;;;;;;;;;;5135730;27;20039;-65
2022/09/10 14:12:49;;;;;;;17.35;8.27;;;;;;;;;;5117771;27;20075;-68
2022/09/10 14:15:16;;;;;;;16.65;9.88;;;;;;;;;;5133457;27;20466;-66
2022/09/10 14:17:46;;;;;;;27.42;15.07;;;;;;;;;;5142538;27;20516;-68
2022/09/10 14:20:26;;;;;;;26.17;16.40;;;;;;;;;;5145299;27;20441;-68
2022/09/10 14:22:57;;;;;;;27.77;16.83;;;;;;;;;;5132435;27;20133;-66
2022/09/10 14:25:34;;;;;;;25.92;17.23;;;;;;;;;;5139864;27;20457;-68
2022/09/10 14:28:15;;;;;;;25.58;17.40;;;;;;;;;;5136516;27;20134;-68
2022/09/10 14:30:41;;;;;;;26.73;16.15;;;;;;;;;;5138843;27;20118;-67
2022/09/10 14:33:30;;;;;;;28.00;16.02;;;;;;;;;;5125689;27;20150;-68
2022/09/10 14:35:57;;;;;;;28.85;16.90;;;;;;;;;;5129935;27;20225;-66
2022/09/10 14:38:31;;;;;;;27.88;17.67;;;;;;;;;;5132487;27;20119;-66
2022/09/10 14:40:59;;;;;;;28.40;17.05;;;;;;;;;;5139469;27;20077;-65
2022/09/10 14:43:27;;;;;;;24.77;15.38;;;;;;;;;;5139087;27;20092;-69
2022/09/10 14:45:54;;;;;;;24.20;14.88;;;;;;;;;;5136572;27;20065;-71